createdAt,value
2022-11-13T00:00:41.729Z,12.73
2022-11-13T00:03:31.272Z,11.03
2022-11-13T00:06:20.079Z,13.03
2022-11-13T00:09:07.240Z,12.20
2022-11-13T00:11:54.453Z,11.83
2022-11-13T00:14:41.440Z,11.30
2022-11-13T00:17:29.586Z,12.83
2022-11-13T00:20:16.438Z,12.83
2022-11-13T00:23:02.867Z,12.10
2022-11-13T00:25:49.462Z,11.80
2022-11-13T00:28:36.616Z,10.70
2022-11-13T00:31:23.468Z,12.40
2022-11-13T00:34:41.021Z,11.37
2022-11-13T00:37:18.900Z,12.00
2022-11-13T00:40:06.530Z,13.00
2022-11-13T00:42:53.210Z,11.13
2022-11-13T00:45:39.813Z,10.87
2022-11-13T00:48:27.055Z,13.13
2022-11-13T00:51:15.135Z,10.70
2022-11-13T00:54:01.979Z,11.13
2022-11-13T00:56:48.389Z,12.30
2022-11-13T00:59:35.349Z,10.50
2022-11-13T01:02:22.316Z,10.30
2022-11-13T01:05:09.574Z,10.67
2022-11-13T01:07:57.851Z,10.73
2022-11-13T01:10:52.989Z,9.50
2022-11-13T01:13:40.665Z,10.37
2022-11-13T01:16:28.764Z,12.50
2022-11-13T01:19:15.725Z,10.03
2022-11-13T01:22:02.110Z,10.23
2022-11-13T01:24:50.287Z,12.87
2022-11-13T01:27:37.777Z,8.97
2022-11-13T01:30:24.441Z,10.83
2022-11-13T01:33:10.903Z,10.73
2022-11-13T01:36:02.191Z,9.67
2022-11-13T01:38:49.548Z,10.13
2022-11-13T01:41:37.640Z,9.10
2022-11-13T01:44:24.274Z,9.33
2022-11-13T01:47:11.019Z,9.33
2022-11-13T01:50:02.162Z,9.40
2022-11-13T01:52:49.035Z,11.23
2022-11-13T01:55:35.615Z,9.30
2022-11-13T01:58:23.768Z,8.47
2022-11-13T02:01:10.982Z,8.87
2022-11-13T02:03:57.498Z,8.97
2022-11-13T02:06:48.582Z,7.57
2022-11-13T02:09:37.701Z,12.73
2022-11-13T02:12:30.152Z,11.30
2022-11-13T02:15:20.714Z,7.80
2022-11-13T02:18:07.946Z,10.30
2022-11-13T02:21:03.459Z,11.13
2022-11-13T02:23:58.184Z,10.63
2022-11-13T02:26:46.715Z,9.87
2022-11-13T02:29:33.436Z,10.53
2022-11-13T02:32:20.188Z,10.17
2022-11-13T02:35:07.199Z,9.97
2022-11-13T02:37:53.953Z,11.27
2022-11-13T02:40:40.368Z,12.03
2022-11-13T02:43:28.527Z,9.43
2022-11-13T02:46:15.613Z,10.90
2022-11-13T02:49:02.638Z,10.43
2022-11-13T02:51:49.034Z,10.53
2022-11-13T02:54:35.766Z,11.63
2022-11-13T02:57:22.432Z,9.83
2022-11-13T03:00:14.227Z,10.97
2022-11-13T03:03:01.103Z,10.47
2022-11-13T03:05:50.415Z,9.27
2022-11-13T03:08:37.379Z,8.70
2022-11-13T03:11:24.549Z,10.00
2022-11-13T03:14:11.382Z,9.20
2022-11-13T03:16:59.730Z,8.63
2022-11-13T03:19:46.209Z,10.70
2022-11-13T03:22:32.910Z,9.40
2022-11-13T03:25:19.705Z,9.37
2022-11-13T03:28:06.528Z,9.47
2022-11-13T03:30:53.145Z,8.63
2022-11-13T03:33:41.421Z,8.40
2022-11-13T03:36:28.552Z,9.53
2022-11-13T03:39:15.023Z,8.60
2022-11-13T03:42:01.926Z,7.80
2022-11-13T03:44:48.686Z,7.93
2022-11-13T03:47:35.330Z,7.50
2022-11-13T03:50:23.268Z,7.10
2022-11-13T03:53:10.149Z,11.20
2022-11-13T03:55:56.592Z,9.87
2022-11-13T03:58:48.439Z,9.50
2022-11-13T04:01:36.081Z,9.03
2022-11-13T04:04:23.005Z,7.77
2022-11-13T04:07:11.169Z,8.60
2022-11-13T04:09:57.822Z,7.60
2022-11-13T04:12:44.738Z,8.80
2022-11-13T04:15:31.385Z,7.73
2022-11-13T04:18:18.116Z,7.40
2022-11-13T04:21:06.463Z,11.20
2022-11-13T04:23:54.839Z,8.20
2022-11-13T04:26:41.552Z,9.00
2022-11-13T04:29:28.438Z,8.17
2022-11-13T04:32:15.450Z,7.03
2022-11-13T04:35:02.161Z,7.83
2022-11-13T04:37:48.700Z,7.87
2022-11-13T04:40:36.685Z,9.40
2022-11-13T04:43:22.202Z,9.40
2022-11-13T04:46:09.166Z,8.83
2022-11-13T04:48:55.970Z,7.90
2022-11-13T04:51:42.536Z,7.90
2022-11-13T04:54:29.204Z,7.20
2022-11-13T04:57:17.227Z,7.67
2022-11-13T05:00:05.528Z,7.57
2022-11-13T05:02:52.044Z,7.13
2022-11-13T05:05:38.643Z,7.87
2022-11-13T05:08:25.792Z,6.60
2022-11-13T05:11:12.522Z,6.87
2022-11-13T05:14:03.382Z,7.53
2022-11-13T05:16:51.688Z,7.73
2022-11-13T05:19:38.622Z,8.50
2022-11-13T05:22:25.165Z,7.23
2022-11-13T05:25:11.869Z,8.60
2022-11-13T05:27:59.234Z,6.83
2022-11-13T05:30:47.129Z,8.83
2022-11-13T05:33:33.822Z,6.83
2022-11-13T05:36:21.583Z,7.30
2022-11-13T05:39:08.290Z,9.53
2022-11-13T05:41:55.156Z,8.73
2022-11-13T05:44:41.810Z,7.23
2022-11-13T05:47:30.098Z,7.63
2022-11-13T05:50:17.338Z,8.47
2022-11-13T05:53:03.874Z,9.10
2022-11-13T05:55:50.548Z,7.43
2022-11-13T05:58:37.231Z,7.30
2022-11-13T06:01:25.949Z,7.03
2022-11-13T06:04:14.224Z,7.50
2022-11-13T06:07:01.155Z,6.80
2022-11-13T06:09:48.001Z,7.83
2022-11-13T06:12:34.807Z,7.20
2022-11-13T06:15:21.359Z,7.63
2022-11-13T06:18:08.130Z,7.10
2022-11-13T06:20:56.404Z,8.27
2022-11-13T06:23:42.915Z,8.27
2022-11-13T06:26:31.642Z,6.60
2022-11-13T06:29:18.122Z,9.53
2022-11-13T06:32:05.421Z,8.30
2022-11-13T06:34:52.190Z,7.20
2022-11-13T06:37:40.464Z,7.80
2022-11-13T06:40:26.948Z,9.57
2022-11-13T06:43:13.975Z,8.30
2022-11-13T06:46:04.632Z,9.10
2022-11-13T06:48:51.623Z,8.23
2022-11-13T06:51:39.642Z,8.93
2022-11-13T06:54:27.718Z,7.37
2022-11-13T06:57:14.405Z,8.70
2022-11-13T07:00:00.974Z,9.03
2022-11-13T07:02:50.121Z,6.73
2022-11-13T07:05:38.280Z,9.47
2022-11-13T07:08:25.211Z,7.37
2022-11-13T07:11:15.684Z,7.53
2022-11-13T07:14:02.356Z,7.73
2022-11-13T07:17:08.584Z,9.23
2022-11-13T07:19:55.781Z,7.77
2022-11-13T07:22:42.647Z,9.17
2022-11-13T07:25:29.936Z,9.13
2022-11-13T07:28:17.918Z,9.27
2022-11-13T07:31:04.797Z,8.70
2022-11-13T07:33:52.670Z,7.43
2022-11-13T07:36:39.387Z,11.87
2022-11-13T07:39:26.104Z,11.47
2022-11-13T07:42:13.178Z,10.93
2022-11-13T07:45:01.127Z,8.67
2022-11-13T07:47:47.730Z,9.50
2022-11-13T07:50:36.214Z,7.83
2022-11-13T07:53:23.540Z,7.93
2022-11-13T07:56:10.365Z,9.90
2022-11-13T07:58:57.044Z,9.87
2022-11-13T08:01:44.827Z,10.93
2022-11-13T08:04:31.986Z,10.03
2022-11-13T08:07:19.099Z,9.53
2022-11-13T08:10:06.466Z,11.67
2022-11-13T08:13:01.349Z,10.20
2022-11-13T08:15:48.001Z,8.80
2022-11-13T08:18:36.054Z,11.23
2022-11-13T08:21:23.355Z,10.87
2022-11-13T08:24:10.871Z,10.70
2022-11-13T08:26:58.033Z,11.27
2022-11-13T08:29:44.752Z,9.90
2022-11-13T08:32:31.523Z,10.77
2022-11-13T08:35:22.895Z,11.33
2022-11-13T08:38:12.045Z,10.13
2022-11-13T08:40:59.880Z,11.73
2022-11-13T08:43:48.955Z,12.83
2022-11-13T08:46:35.548Z,10.30
2022-11-13T08:49:22.176Z,13.03
2022-11-13T08:52:10.151Z,14.17
2022-11-13T08:54:56.881Z,11.33
2022-11-13T08:57:43.670Z,11.20
2022-11-13T09:00:31.499Z,10.37
2022-11-13T09:03:18.671Z,11.23
2022-11-13T09:06:07.316Z,9.30
2022-11-13T09:08:55.497Z,10.53
2022-11-13T09:11:42.399Z,8.23
2022-11-13T09:14:29.249Z,7.03
2022-11-13T09:17:16.002Z,7.70
2022-11-13T09:20:04.584Z,6.90
2022-11-13T09:22:58.128Z,6.00
2022-11-13T09:25:46.426Z,5.70
2022-11-13T09:28:33.163Z,6.37
2022-11-13T09:31:19.636Z,6.70
2022-11-13T09:34:06.496Z,10.07
2022-11-13T09:36:53.097Z,10.60
2022-11-13T09:39:40.467Z,10.17
2022-11-13T09:42:30.691Z,6.17
2022-11-13T09:45:17.609Z,5.33
2022-11-13T09:48:16.228Z,5.80
2022-11-13T09:51:07.399Z,5.10
2022-11-13T09:53:54.390Z,5.93
2022-11-13T09:56:44.226Z,5.90
2022-11-13T09:59:39.713Z,8.80
2022-11-13T10:02:37.153Z,6.27
2022-11-13T10:05:30.122Z,12.97
2022-11-13T10:08:20.550Z,8.87
2022-11-13T10:11:15.504Z,6.67
2022-11-13T10:14:04.643Z,5.23
2022-11-13T10:16:59.393Z,4.80
2022-11-13T10:19:54.287Z,4.50
2022-11-13T10:22:45.868Z,5.67
2022-11-13T10:25:36.703Z,13.93
2022-11-13T10:28:49.493Z,12.07
2022-11-13T10:31:43.441Z,5.10
2022-11-13T10:34:34.242Z,6.10
2022-11-13T10:37:35.914Z,4.63
2022-11-13T10:40:26.511Z,5.47
2022-11-13T10:43:17.038Z,5.80
2022-11-13T10:46:05.635Z,5.10
2022-11-13T10:48:53.165Z,5.10
2022-11-13T10:51:41.732Z,4.67
2022-11-13T10:54:31.013Z,4.43
2022-11-13T10:57:28.968Z,4.53
2022-11-13T11:00:24.919Z,5.00
2022-11-13T11:03:16.296Z,5.63
2022-11-13T11:06:05.259Z,5.93
2022-11-13T11:08:53.319Z,7.47
2022-11-13T11:11:57.592Z,5.83
2022-11-13T11:14:56.275Z,5.17
2022-11-13T11:17:47.861Z,5.10
2022-11-13T11:20:45.955Z,5.67
2022-11-13T11:23:40.814Z,5.23
2022-11-13T11:26:33.539Z,4.90
2022-11-13T11:29:34.362Z,4.30
2022-11-13T11:32:26.485Z,5.07
2022-11-13T11:35:18.628Z,7.10
2022-11-13T11:38:11.245Z,3.80
2022-11-13T11:41:16.546Z,4.70
2022-11-13T11:44:13.026Z,4.07
2022-11-13T11:47:00.108Z,4.03
2022-11-13T11:49:46.917Z,4.40
2022-11-13T11:52:51.988Z,4.43
2022-11-13T11:56:02.605Z,4.70
2022-11-13T11:59:20.590Z,8.63
2022-11-13T12:02:37.117Z,5.70
2022-11-13T12:05:25.859Z,5.20
2022-11-13T12:08:23.760Z,4.00
2022-11-13T12:11:17.571Z,3.83
2022-11-13T12:14:14.830Z,4.53
2022-11-13T12:17:17.179Z,4.27
2022-11-13T12:20:19.251Z,5.13
2022-11-13T12:23:23.464Z,4.63
2022-11-13T12:26:18.167Z,4.20
2022-11-13T12:29:16.483Z,4.20
2022-11-13T12:32:13.848Z,3.63
2022-11-13T12:35:06.007Z,3.63
2022-11-13T12:37:58.991Z,3.00
2022-11-13T12:40:52.704Z,3.80
2022-11-13T12:43:55.293Z,1.97
2022-11-13T12:46:43.412Z,2.20
2022-11-13T12:49:33.403Z,2.50
2022-11-13T12:52:22.926Z,1.70
2022-11-13T12:55:27.072Z,2.03
2022-11-13T12:58:21.784Z,1.80
2022-11-13T13:01:18.508Z,1.60
2022-11-13T13:04:35.334Z,1.70
2022-11-13T13:07:43.724Z,2.00
2022-11-13T13:10:37.589Z,2.07
2022-11-13T13:13:31.123Z,3.03
2022-11-13T13:16:24.727Z,2.07
2022-11-13T13:19:26.849Z,2.37
2022-11-13T13:22:26.860Z,1.70
2022-11-13T13:25:27.999Z,2.07
2022-11-13T13:28:21.606Z,2.93
2022-11-13T13:31:23.060Z,1.97
2022-11-13T13:34:23.447Z,1.57
2022-11-13T13:37:24.678Z,1.70
2022-11-13T13:40:25.791Z,1.50
2022-11-13T13:43:39.542Z,1.60
2022-11-13T13:46:28.830Z,2.37
2022-11-13T13:49:18.788Z,2.77
2022-11-13T13:52:06.366Z,3.37
2022-11-13T13:54:53.463Z,3.83
2022-11-13T13:57:43.167Z,1.77
2022-11-13T14:00:32.266Z,2.90
2022-11-13T14:03:25.136Z,2.47
2022-11-13T14:06:21.127Z,1.97
2022-11-13T14:09:12.302Z,1.57
2022-11-13T14:12:04.760Z,3.67
2022-11-13T14:14:54.710Z,3.33
2022-11-13T14:17:44.578Z,2.93
2022-11-13T14:20:35.208Z,1.70
2022-11-13T14:23:27.908Z,1.63
2022-11-13T14:26:15.137Z,1.23
2022-11-13T14:29:03.263Z,1.53
2022-11-13T14:31:50.548Z,1.60
2022-11-13T14:34:39.019Z,1.30
2022-11-13T14:37:28.860Z,3.30
2022-11-13T14:40:22.187Z,2.87
2022-11-13T14:43:16.064Z,2.73
2022-11-13T14:46:05.131Z,1.57
2022-11-13T14:48:55.175Z,2.40
2022-11-13T14:51:43.607Z,2.03
2022-11-13T14:54:53.063Z,2.67
2022-11-13T14:57:48.738Z,2.17
2022-11-13T15:00:37.556Z,3.40
2022-11-13T15:03:24.569Z,2.17
2022-11-13T15:06:15.884Z,2.67
2022-11-13T15:09:04.225Z,1.60
2022-11-13T15:11:51.407Z,2.00
2022-11-13T15:14:40.993Z,2.33
2022-11-13T15:17:27.575Z,1.67
2022-11-13T15:20:19.237Z,2.87
2022-11-13T15:23:05.901Z,1.33
2022-11-13T15:25:53.938Z,1.47
2022-11-13T15:28:41.015Z,2.33
2022-11-13T15:31:41.404Z,2.17
2022-11-13T15:34:28.217Z,3.23
2022-11-13T15:37:17.233Z,4.00
2022-11-13T15:40:04.941Z,3.97
2022-11-13T15:42:53.371Z,3.97
2022-11-13T15:45:44.229Z,3.03
2022-11-13T15:48:31.132Z,3.67
2022-11-13T15:51:20.081Z,5.10
2022-11-13T15:54:15.960Z,5.77
2022-11-13T15:57:03.394Z,4.13
2022-11-13T15:59:51.555Z,4.23
2022-11-13T16:02:39.076Z,4.43
2022-11-13T16:05:29.017Z,7.10
2022-11-13T16:08:17.075Z,9.47
2022-11-13T16:11:03.540Z,6.10
2022-11-13T16:13:50.395Z,4.53
2022-11-13T16:16:40.793Z,6.90
2022-11-13T16:19:27.810Z,5.93
2022-11-13T16:22:19.285Z,14.77
2022-11-13T16:25:06.959Z,6.55
2022-11-13T16:27:54.134Z,6.20
2022-11-13T16:30:41.125Z,6.27
2022-11-13T16:33:29.313Z,6.40
2022-11-13T16:36:17.854Z,7.43
2022-11-13T16:39:04.995Z,6.63
2022-11-13T16:41:51.818Z,5.83
2022-11-13T16:44:38.525Z,8.27
2022-11-13T16:47:27.045Z,8.17
2022-11-13T16:50:17.596Z,10.87
2022-11-13T16:53:04.394Z,7.70
2022-11-13T16:55:50.774Z,7.80
2022-11-13T16:58:37.729Z,9.43
2022-11-13T17:01:25.332Z,8.33
2022-11-13T17:04:15.221Z,8.10
2022-11-13T17:07:03.498Z,10.27
2022-11-13T17:10:10.049Z,12.23
2022-11-13T17:12:56.980Z,11.87
2022-11-13T17:15:43.820Z,9.00
2022-11-13T17:18:30.400Z,14.73
2022-11-13T17:21:17.934Z,12.07
2022-11-13T17:24:07.006Z,10.43
2022-11-13T17:26:53.941Z,11.70
2022-11-13T17:29:40.662Z,7.03
2022-11-13T17:32:27.669Z,8.10
2022-11-13T17:35:14.277Z,9.60
2022-11-13T17:38:00.736Z,8.43
2022-11-13T17:40:48.915Z,8.50
2022-11-13T17:43:36.745Z,8.93
2022-11-13T17:46:23.407Z,10.47
2022-11-13T17:49:10.186Z,10.33
2022-11-13T17:51:56.885Z,10.57
2022-11-13T17:54:43.723Z,11.27
2022-11-13T17:57:33.245Z,13.03
2022-11-13T18:00:20.657Z,14.13
2022-11-13T18:03:08.091Z,11.00
2022-11-13T18:05:54.701Z,12.63
2022-11-13T18:08:42.639Z,11.20
2022-11-13T18:11:30.589Z,15.83
2022-11-13T18:14:19.460Z,13.33
2022-11-13T18:17:06.215Z,13.17
2022-11-13T18:19:58.572Z,12.63
2022-11-13T18:22:48.375Z,11.97
2022-11-13T18:25:39.722Z,16.00
2022-11-13T18:28:26.661Z,15.07
2022-11-13T18:31:18.766Z,14.50
2022-11-13T18:34:07.278Z,17.23
2022-11-13T18:36:54.295Z,16.80
2022-11-13T18:39:41.007Z,16.80
2022-11-13T18:42:27.969Z,17.77
2022-11-13T18:45:16.344Z,19.73
2022-11-13T18:48:04.784Z,21.67
2022-11-13T18:50:56.858Z,20.60
2022-11-13T18:53:45.725Z,20.93
2022-11-13T18:56:33.840Z,20.67
2022-11-13T18:59:20.743Z,21.27
2022-11-13T19:02:07.498Z,24.10
2022-11-13T19:04:55.927Z,25.10
2022-11-13T19:07:43.719Z,20.20
2022-11-13T19:10:30.485Z,23.33
2022-11-13T19:13:17.406Z,23.57
2022-11-13T19:16:08.865Z,23.03
2022-11-13T19:18:57.576Z,23.33
2022-11-13T19:21:46.394Z,22.87
2022-11-13T19:24:34.402Z,26.50
2022-11-13T19:27:21.547Z,21.30
2022-11-13T19:30:09.157Z,23.33
2022-11-13T19:32:56.094Z,24.70
2022-11-13T19:35:42.589Z,27.13
2022-11-13T19:38:31.240Z,26.33
2022-11-13T19:41:19.137Z,25.37
2022-11-13T19:44:06.525Z,24.47
2022-11-13T19:46:53.535Z,25.93
2022-11-13T19:49:40.444Z,25.03
2022-11-13T19:52:27.219Z,24.77
2022-11-13T19:55:15.295Z,28.90
2022-11-13T19:58:02.384Z,25.23
2022-11-13T20:00:49.359Z,27.80
2022-11-13T20:03:36.138Z,29.87
2022-11-13T20:06:23.208Z,24.93
2022-11-13T20:09:10.753Z,25.17
2022-11-13T20:11:58.830Z,27.00
2022-11-13T20:14:45.504Z,27.47
2022-11-13T20:17:32.307Z,27.60
2022-11-13T20:20:19.151Z,27.80
2022-11-13T20:23:05.940Z,29.73
2022-11-13T20:25:54.143Z,28.70
2022-11-13T20:28:42.239Z,27.93
2022-11-13T20:31:29.996Z,28.10
2022-11-13T20:34:16.663Z,27.17
2022-11-13T20:37:03.442Z,27.13
2022-11-13T20:39:50.305Z,32.63
2022-11-13T20:42:37.154Z,33.53
2022-11-13T20:45:25.250Z,28.67
2022-11-13T20:48:12.077Z,31.47
2022-11-13T20:50:58.625Z,26.47
2022-11-13T20:54:13.354Z,31.57
2022-11-13T20:57:00.053Z,29.43
2022-11-13T20:59:47.085Z,27.03
2022-11-13T21:02:35.229Z,30.60
2022-11-13T21:05:22.391Z,27.43
2022-11-13T21:08:11.323Z,29.50
2022-11-13T21:11:00.522Z,27.83
2022-11-13T21:13:48.992Z,27.80
2022-11-13T21:16:35.962Z,26.03
2022-11-13T21:19:24.789Z,27.73
2022-11-13T21:22:11.600Z,26.07
2022-11-13T21:24:58.732Z,26.63
2022-11-13T21:27:45.618Z,26.83
2022-11-13T21:30:32.151Z,28.80
2022-11-13T21:33:18.526Z,27.33
2022-11-13T21:36:07.959Z,25.07
2022-11-13T21:38:55.713Z,27.27
2022-11-13T21:41:42.593Z,27.70
2022-11-13T21:44:29.311Z,29.23
2022-11-13T21:47:16.246Z,29.20
2022-11-13T21:50:03.113Z,27.97
2022-11-13T21:52:51.421Z,32.37
2022-11-13T21:55:38.303Z,28.70
2022-11-13T21:58:31.941Z,30.27
2022-11-13T22:01:19.023Z,29.07
2022-11-13T22:04:05.919Z,26.90
2022-11-13T22:06:53.347Z,27.50
2022-11-13T22:09:41.579Z,28.40
2022-11-13T22:12:28.359Z,26.30
2022-11-13T22:15:14.945Z,28.93
2022-11-13T22:18:01.994Z,28.17
2022-11-13T22:20:49.175Z,32.23
2022-11-13T22:23:36.496Z,29.77
2022-11-13T22:26:25.813Z,29.20
2022-11-13T22:29:15.767Z,26.97
2022-11-13T22:32:02.484Z,29.07
2022-11-13T22:34:49.261Z,28.87
2022-11-13T22:37:36.206Z,31.00
2022-11-13T22:40:22.738Z,30.47
2022-11-13T22:43:10.944Z,27.17
2022-11-13T22:46:02.834Z,31.07
2022-11-13T22:48:50.957Z,33.70
2022-11-13T22:51:41.041Z,31.37
2022-11-13T22:54:27.444Z,32.20
2022-11-13T22:57:14.314Z,27.33
2022-11-13T23:00:02.528Z,28.27
2022-11-13T23:02:49.080Z,26.27
2022-11-13T23:05:36.280Z,26.90
2022-11-13T23:08:23.505Z,22.87
2022-11-13T23:11:13.183Z,25.90
2022-11-13T23:14:02.063Z,26.07
2022-11-13T23:16:49.882Z,28.73
2022-11-13T23:19:36.824Z,29.03
2022-11-13T23:22:23.288Z,24.53
2022-11-13T23:25:10.395Z,30.07
2022-11-13T23:27:56.935Z,22.93
2022-11-13T23:30:43.445Z,23.87
2022-11-13T23:33:31.690Z,23.23
2022-11-13T23:36:19.003Z,26.33
2022-11-13T23:39:05.576Z,24.47
2022-11-13T23:41:52.355Z,20.83
2022-11-13T23:44:39.120Z,20.93
2022-11-13T23:47:26.010Z,23.67
2022-11-13T23:50:14.166Z,25.50
2022-11-13T23:53:00.879Z,23.47
2022-11-13T23:55:47.416Z,20.57
2022-11-13T23:58:34.641Z,22.43
